Maersk Vallvik — 9V8839 — position and weather

sailwx.info

Track history (hours):
 
Tides and Currents Weather Stations Pressure Air Temp Water Temp Dewpoint Dewpoint Depression Visibility Wind Speed Wind Dir Waves Ship Positions

Maersk Vallvik

Last reported at 2016-Jul-31 04:32 UTC. Time now 2016-Jul-31 05:26 UTC.
Position N 36°51' W 075°50'.

Length 180 m; draft 9.3 m.

Type: Ship (hazmat cat A). MMSI: 564837000.

Date/timePositionNaut miles runAvg speedWind from/ knotsBaromVisibWave heightAir tempDewpointWater temp
2016-Jul-31 04:32N 36°51' W 075°50'1515.4
2016-Jul-31 03:33N 36°58' W 076°07'1210.4
2016-Jul-31 02:26N 36°54' W 076°20'2 0.2
2016-Jul-30 19:06N 36°53' W 076°21'0 0.0
2016-Jul-30 18:30N 36°53' W 076°21'0 0.0
2016-Jul-30 17:33N 36°53' W 076°21'0 0.0
2016-Jul-30 16:14N 36°53' W 076°21'2 3.4
2016-Jul-30 15:33N 36°55' W 076°20'10 9.9
2016-Jul-30 14:33N 36°59' W 076°09'5 5.4
2016-Jul-30 13:33N 37°03' W 076°05'1616.0
2016-Jul-30 12:33N 37°19' W 076°06'3416.1
2016-Jul-30 10:28N 37°53' W 076°09'1718.3
2016-Jul-30 09:33N 38°09' W 076°14'1615.5
2016-Jul-30 08:33N 38°24' W 076°21'1817.7
2016-Jul-30 07:34N 38°41' W 076°26'1717.0
2016-Jul-30 06:33N 38°58' W 076°23'1313.3
2016-Jul-30 05:34N 39°11' W 076°27'7 6.4
2016-Jul-30 04:32N 39°15' W 076°33'0 0.0
2016-Jul-30 03:32N 39°15' W 076°33'0 0.0
2016-Jul-30 02:32N 39°15' W 076°33'0 0.0
2016-Jul-30 01:29N 39°15' W 076°33'0 0.0
2016-Jul-30 00:32N 39°15' W 076°33'0 0.0
2016-Jul-29 23:32N 39°15' W 076°33'0 0.0
2016-Jul-29 22:29N 39°15' W 076°33'0 0.0
2016-Jul-29 21:32N 39°15' W 076°33'0 0.0
2016-Jul-29 20:32N 39°15' W 076°33'0 0.0
2016-Jul-29 19:32N 39°15' W 076°33'0 0.0
2016-Jul-29 18:32N 39°15' W 076°33'0 0.0
2016-Jul-29 17:32N 39°15' W 076°33'0 0.0
2016-Jul-29 16:32N 39°15' W 076°33'0 0.0
2016-Jul-29 15:32N 39°15' W 076°33'0 0.0
2016-Jul-29 14:32N 39°15' W 076°33'0 0.0
2016-Jul-29 13:29N 39°15' W 076°33'0 0.0
2016-Jul-29 12:33N 39°15' W 076°33'0 0.0
2016-Jul-29 11:33N 39°15' W 076°33'3 2.8
2016-Jul-29 10:33N 39°13' W 076°32'7 7.1
2016-Jul-29 09:33N 39°08' W 076°24'1111.1
2016-Jul-29 08:33N 38°57' W 076°23'1313.2
2016-Jul-29 07:33N 38°44' W 076°26'10516.6
2016-Jul-29 01:16N 37°01' W 076°03'913.0
2016-Jul-29 00:33N 36°55' W 075°55'7310.4
2016-Jul-28 17:34N 37°45' W 074°48'1611.9
2016-Jul-28 16:15N 37°59' W 074°38'1111.4
2016-Jul-28 15:18N 38°08' W 074°31'912.0
2016-Jul-28 14:32N 38°15' W 074°24'1211.9
2016-Jul-28 13:32N 38°26' W 074°17'1212.2
2016-Jul-28 12:33N 38°37' W 074°11'1312.8
2016-Jul-28 11:33N 38°49' W 074°06'1312.9
2016-Jul-28 10:33N 39°01' W 074°02'1212.4
2016-Jul-28 09:34N 39°14' W 073°59'1212.0
2016-Jul-28 08:33N 39°25' W 073°56'1211.9
2016-Jul-28 07:33N 39°37' W 073°53'1211.9
2016-Jul-28 06:33N 39°49' W 073°51'1212.4
2016-Jul-28 05:33N 40°01' W 073°50'1312.8
2016-Jul-28 04:34N 40°14' W 073°49'1211.5
2016-Jul-28 03:33N 40°25' W 073°49'1313.3
2016-Jul-28 02:33N 40°35' W 074°02'7 7.2
2016-Jul-28 01:33N 40°40' W 074°09'1 1.3
2016-Jul-28 00:31N 40°41' W 074°09'0 0.0
2016-Jul-27 23:28N 40°41' W 074°09'0 0.0
2016-Jul-27 22:28N 40°41' W 074°09'0 0.0
2016-Jul-27 21:31N 40°41' W 074°09'0 0.0
2016-Jul-27 20:31N 40°41' W 074°09'0 0.0
2016-Jul-27 19:31N 40°41' W 074°09'0 0.0
2016-Jul-27 18:31N 40°41' W 074°09'0 0.0
2016-Jul-27 17:31N 40°41' W 074°09'0 0.0
2016-Jul-27 16:31N 40°41' W 074°09'0 0.0
2016-Jul-27 15:31N 40°41' W 074°09'0 0.0
2016-Jul-27 14:31N 40°41' W 074°09'0 0.0
2016-Jul-27 13:31N 40°41' W 074°09'0 0.0
2016-Jul-27 12:31N 40°41' W 074°09'0 0.0
2016-Jul-27 11:31N 40°41' W 074°09'0 0.0
2016-Jul-27 10:31N 40°41' W 074°09'0 0.0
2016-Jul-27 09:33N 40°41' W 074°09'3 3.2
2016-Jul-27 08:33N 40°39' W 074°06'10 9.9
2016-Jul-27 07:33N 40°31' W 073°59'9415.4
2016-Jul-27 01:27N 39°22' W 072°35'1517.0
2016-Jul-27 00:33N 39°11' W 072°21'1717.1
2016-Jul-26 23:33N 38°59' W 072°06'1716.8
2016-Jul-26 22:32N 38°47' W 071°50'  
Track history (hours):
 
Tides and Currents Weather Stations Pressure Air Temp Water Temp Dewpoint Dewpoint Depression Visibility Wind Speed Wind Dir Waves Ship Positions

Maersk Vallvik

Last reported at 2016-Jul-31 04:32 UTC. Time now 2016-Jul-31 05:26 UTC.
Position N 36°51' W 075°50'.

Length 180 m; draft 9.3 m.

Type: Ship (hazmat cat A). MMSI: 564837000.

Date/timePositionNaut miles runAvg speedWind from/ knotsBaromVisibWave heightAir tempDewpointWater temp
2016-Jul-31 04:32N 36°51' W 075°50'1515.4
2016-Jul-31 03:33N 36°58' W 076°07'1210.4
2016-Jul-31 02:26N 36°54' W 076°20'2 0.2
2016-Jul-30 19:06N 36°53' W 076°21'0 0.0
2016-Jul-30 18:30N 36°53' W 076°21'0 0.0
2016-Jul-30 17:33N 36°53' W 076°21'0 0.0
2016-Jul-30 16:14N 36°53' W 076°21'2 3.4
2016-Jul-30 15:33N 36°55' W 076°20'10 9.9
2016-Jul-30 14:33N 36°59' W 076°09'5 5.4
2016-Jul-30 13:33N 37°03' W 076°05'1616.0
2016-Jul-30 12:33N 37°19' W 076°06'3416.1
2016-Jul-30 10:28N 37°53' W 076°09'1718.3
2016-Jul-30 09:33N 38°09' W 076°14'1615.5
2016-Jul-30 08:33N 38°24' W 076°21'1817.7
2016-Jul-30 07:34N 38°41' W 076°26'1717.0
2016-Jul-30 06:33N 38°58' W 076°23'1313.3
2016-Jul-30 05:34N 39°11' W 076°27'7 6.4
2016-Jul-30 04:32N 39°15' W 076°33'0 0.0
2016-Jul-30 03:32N 39°15' W 076°33'0 0.0
2016-Jul-30 02:32N 39°15' W 076°33'0 0.0
2016-Jul-30 01:29N 39°15' W 076°33'0 0.0
2016-Jul-30 00:32N 39°15' W 076°33'0 0.0
2016-Jul-29 23:32N 39°15' W 076°33'0 0.0
2016-Jul-29 22:29N 39°15' W 076°33'0 0.0
2016-Jul-29 21:32N 39°15' W 076°33'0 0.0
2016-Jul-29 20:32N 39°15' W 076°33'0 0.0
2016-Jul-29 19:32N 39°15' W 076°33'0 0.0
2016-Jul-29 18:32N 39°15' W 076°33'0 0.0
2016-Jul-29 17:32N 39°15' W 076°33'0 0.0
2016-Jul-29 16:32N 39°15' W 076°33'0 0.0
2016-Jul-29 15:32N 39°15' W 076°33'0 0.0
2016-Jul-29 14:32N 39°15' W 076°33'0 0.0
2016-Jul-29 13:29N 39°15' W 076°33'0 0.0
2016-Jul-29 12:33N 39°15' W 076°33'0 0.0
2016-Jul-29 11:33N 39°15' W 076°33'3 2.8
2016-Jul-29 10:33N 39°13' W 076°32'7 7.1
2016-Jul-29 09:33N 39°08' W 076°24'1111.1
2016-Jul-29 08:33N 38°57' W 076°23'1313.2
2016-Jul-29 07:33N 38°44' W 076°26'10516.6
2016-Jul-29 01:16N 37°01' W 076°03'913.0
2016-Jul-29 00:33N 36°55' W 075°55'7310.4
2016-Jul-28 17:34N 37°45' W 074°48'1611.9
2016-Jul-28 16:15N 37°59' W 074°38'1111.4
2016-Jul-28 15:18N 38°08' W 074°31'912.0
2016-Jul-28 14:32N 38°15' W 074°24'1211.9
2016-Jul-28 13:32N 38°26' W 074°17'1212.2
2016-Jul-28 12:33N 38°37' W 074°11'1312.8
2016-Jul-28 11:33N 38°49' W 074°06'1312.9
2016-Jul-28 10:33N 39°01' W 074°02'1212.4
2016-Jul-28 09:34N 39°14' W 073°59'1212.0
2016-Jul-28 08:33N 39°25' W 073°56'1211.9
2016-Jul-28 07:33N 39°37' W 073°53'1211.9
2016-Jul-28 06:33N 39°49' W 073°51'1212.4
2016-Jul-28 05:33N 40°01' W 073°50'1312.8
2016-Jul-28 04:34N 40°14' W 073°49'1211.5
2016-Jul-28 03:33N 40°25' W 073°49'1313.3
2016-Jul-28 02:33N 40°35' W 074°02'7 7.2
2016-Jul-28 01:33N 40°40' W 074°09'1 1.3
2016-Jul-28 00:31N 40°41' W 074°09'0 0.0
2016-Jul-27 23:28N 40°41' W 074°09'0 0.0
2016-Jul-27 22:28N 40°41' W 074°09'0 0.0
2016-Jul-27 21:31N 40°41' W 074°09'0 0.0
2016-Jul-27 20:31N 40°41' W 074°09'0 0.0
2016-Jul-27 19:31N 40°41' W 074°09'0 0.0
2016-Jul-27 18:31N 40°41' W 074°09'0 0.0
2016-Jul-27 17:31N 40°41' W 074°09'0 0.0
2016-Jul-27 16:31N 40°41' W 074°09'0 0.0
2016-Jul-27 15:31N 40°41' W 074°09'0 0.0
2016-Jul-27 14:31N 40°41' W 074°09'0 0.0
2016-Jul-27 13:31N 40°41' W 074°09'0 0.0
2016-Jul-27 12:31N 40°41' W 074°09'0 0.0
2016-Jul-27 11:31N 40°41' W 074°09'0 0.0
2016-Jul-27 10:31N 40°41' W 074°09'0 0.0
2016-Jul-27 09:33N 40°41' W 074°09'3 3.2
2016-Jul-27 08:33N 40°39' W 074°06'10 9.9
2016-Jul-27 07:33N 40°31' W 073°59'9415.4
2016-Jul-27 01:27N 39°22' W 072°35'1517.0
2016-Jul-27 00:33N 39°11' W 072°21'1717.1
2016-Jul-26 23:33N 38°59' W 072°06'1716.8
2016-Jul-26 22:32N 38°47' W 071°50'  

Dump ship's entire track history